createdAt,value
2018-04-19T00:04:57.486Z,9.7
2018-04-19T00:15:11.609Z,9.3
2018-04-19T00:25:27.869Z,11.9
2018-04-19T00:35:43.337Z,10.0
2018-04-19T00:45:57.671Z,14.2
2018-04-19T00:56:09.603Z,12.7
2018-04-19T01:06:25.236Z,13.7
2018-04-19T01:16:38.996Z,13.3
2018-04-19T01:26:52.388Z,16.7
2018-04-19T01:37:06.488Z,11.9
2018-04-19T01:47:20.644Z,17.6
2018-04-19T01:57:35.396Z,14.7
2018-04-19T02:08:19.710Z,14.2
2018-04-19T02:18:32.981Z,14.6
2018-04-19T02:28:47.209Z,14.2
2018-04-19T02:39:01.596Z,13.3
2018-04-19T02:49:13.496Z,14.4
2018-04-19T02:59:27.756Z,12.6
2018-04-19T03:10:13.539Z,16.3
2018-04-19T03:20:58.507Z,14.7
2018-04-19T03:31:15.343Z,15.2
2018-04-19T03:41:29.824Z,9.9
2018-04-19T03:51:40.916Z,13.5
2018-04-19T04:01:55.886Z,13.4
2018-04-19T04:12:09.440Z,15.0
2018-04-19T04:22:23.541Z,17.0
2018-04-19T04:33:07.850Z,13.5
2018-04-19T04:43:55.087Z,18.9
2018-04-19T04:54:09.733Z,13.3
2018-04-19T05:04:24.042Z,15.6
2018-04-19T05:14:37.763Z,10.8
2018-04-19T05:25:04.147Z,12.4
2018-04-19T05:35:18.362Z,14.0
2018-04-19T05:45:33.053Z,12.3
2018-04-19T05:56:17.339Z,10.6
2018-04-19T06:06:31.694Z,11.4
2018-04-19T06:18:18.322Z,12.9
2018-04-19T06:28:32.642Z,11.0
2018-04-19T06:38:47.165Z,10.4
2018-04-19T06:49:32.405Z,9.3
2018-04-19T06:59:52.759Z,8.5
2018-04-19T07:10:26.296Z,11.1
2018-04-19T07:20:51.097Z,9.2
2018-04-19T07:31:02.751Z,8.5
2018-04-19T07:41:17.872Z,9.5
2018-04-19T07:51:32.763Z,9.1
2018-04-19T08:01:44.662Z,6.1
2018-04-19T08:12:12.430Z,5.2
2018-04-19T08:33:17.874Z,7.3
2018-04-19T08:43:31.850Z,5.8
2018-04-19T08:53:46.487Z,5.4
2018-04-19T09:04:01.746Z,4.3
2018-04-19T09:14:15.568Z,3.4
2018-04-19T09:24:29.848Z,4.3
2018-04-19T09:34:41.291Z,3.8
2018-04-19T09:44:55.819Z,4.0
2018-04-19T09:55:09.671Z,3.6
2018-04-19T10:05:22.313Z,3.6
2018-04-19T10:37:20.103Z,3.0
2018-04-19T10:47:34.094Z,4.0
2018-04-19T10:57:48.397Z,3.1
2018-04-19T11:08:51.138Z,2.9
2018-04-19T11:19:02.592Z,4.4
2018-04-19T11:29:47.453Z,4.1
2018-04-19T11:40:42.228Z,3.6
2018-04-19T11:51:15.131Z,3.0
2018-04-19T12:02:19.446Z,3.3
2018-04-19T12:13:15.033Z,2.0
2018-04-19T12:23:54.476Z,2.2
2018-04-19T12:34:22.828Z,3.0
2018-04-19T12:44:54.491Z,1.2
2018-04-19T12:55:28.905Z,1.8
2018-04-19T13:05:54.696Z,1.3
2018-04-19T13:27:14.824Z,1.7
2018-04-19T13:38:00.476Z,2.3
2018-04-19T13:48:37.957Z,2.3
2018-04-19T13:58:49.692Z,1.2
2018-04-19T14:09:04.330Z,1.9
2018-04-19T14:19:24.501Z,1.7
2018-04-19T14:29:36.419Z,1.8
2018-04-19T14:40:33.674Z,1.4
2018-04-19T15:01:03.677Z,1.1
2018-04-19T15:11:29.842Z,2.0
2018-04-19T15:22:03.652Z,1.4
2018-04-19T15:34:31.636Z,1.9
2018-04-19T15:44:57.080Z,1.3
2018-04-19T15:55:08.710Z,1.5
2018-04-19T16:05:53.699Z,6.9
2018-04-19T16:16:17.828Z,1.6
2018-04-19T16:26:34.786Z,1.2
2018-04-19T16:37:21.430Z,2.2
2018-04-19T16:47:39.430Z,1.3
2018-04-19T16:57:53.237Z,1.8
2018-04-19T17:08:18.023Z,1.2
2018-04-19T17:18:30.759Z,1.4
2018-04-19T17:28:44.947Z,2.4
2018-04-19T17:38:58.723Z,2.5
2018-04-19T17:49:13.288Z,1.7
2018-04-19T17:59:59.122Z,1.3
2018-04-19T18:10:13.320Z,1.8
2018-04-19T18:20:27.498Z,2.3
2018-04-19T18:30:41.506Z,2.4
2018-04-19T18:40:57.441Z,1.9
2018-04-19T19:09:50.444Z,2.2
2018-04-19T19:20:47.327Z,3.1
2018-04-19T19:31:03.115Z,3.1
2018-04-19T20:06:59.727Z,3.0
2018-04-19T20:17:11.371Z,1.7
2018-04-19T20:27:25.291Z,2.6
2018-04-19T20:37:39.511Z,2.5
2018-04-19T20:47:53.984Z,2.4
2018-04-19T20:58:39.471Z,3.0
2018-04-19T21:08:53.648Z,3.0
2018-04-19T21:19:08.040Z,3.1
2018-04-19T21:29:22.796Z,2.5
2018-04-19T21:39:36.713Z,2.8
2018-04-19T21:50:21.109Z,3.0
2018-04-19T22:00:32.401Z,3.0
2018-04-19T22:10:46.908Z,3.9
2018-04-19T22:21:00.801Z,2.9
2018-04-19T22:31:15.140Z,3.3
2018-04-19T22:41:29.596Z,3.4
2018-04-19T22:51:41.565Z,3.5
2018-04-19T23:01:55.987Z,4.6
2018-04-19T23:12:10.361Z,3.9
2018-04-19T23:22:56.047Z,3.0
2018-04-19T23:33:07.796Z,3.0
2018-04-19T23:43:53.666Z,3.9
2018-04-19T23:54:08.650Z,5.1
